sensor_id;sensor_type;location;lat;lon;timestamp;P1;durP1;ratioP1;P2;durP2;ratioP2
57985;SDS011;43788;42.670;23.330;2023-01-23T00:01:47;0.10;;;0.10;;
57985;SDS011;43788;42.670;23.330;2023-01-23T00:04:13;0.10;;;0.10;;
57985;SDS011;43788;42.670;23.330;2023-01-23T00:06:39;0.20;;;0.20;;
57985;SDS011;43788;42.670;23.330;2023-01-23T00:09:05;0.30;;;0.30;;
57985;SDS011;43788;42.670;23.330;2023-01-23T00:11:31;0.47;;;0.25;;
57985;SDS011;43788;42.670;23.330;2023-01-23T00:13:57;0.10;;;0.10;;
57985;SDS011;43788;42.670;23.330;2023-01-23T00:16:24;0.20;;;0.20;;
57985;SDS011;43788;42.670;23.330;2023-01-23T00:18:50;0.15;;;0.15;;
57985;SDS011;43788;42.670;23.330;2023-01-23T00:21:17;0.10;;;0.10;;
57985;SDS011;43788;42.670;23.330;2023-01-23T00:23:46;0.30;;;0.30;;
57985;SDS011;43788;42.670;23.330;2023-01-23T00:26:15;0.10;;;0.00;;
57985;SDS011;43788;42.670;23.330;2023-01-23T00:28:45;0.10;;;0.10;;
57985;SDS011;43788;42.670;23.330;2023-01-23T00:31:13;0.03;;;0.03;;
57985;SDS011;43788;42.670;23.330;2023-01-23T00:33:39;0.20;;;0.20;;
57985;SDS011;43788;42.670;23.330;2023-01-23T00:36:05;0.10;;;0.10;;
57985;SDS011;43788;42.670;23.330;2023-01-23T00:38:31;0.15;;;0.15;;
57985;SDS011;43788;42.670;23.330;2023-01-23T00:40:57;0.10;;;0.10;;
57985;SDS011;43788;42.670;23.330;2023-01-23T00:43:23;0.25;;;0.10;;
57985;SDS011;43788;42.670;23.330;2023-01-23T00:45:49;0.00;;;0.00;;
57985;SDS011;43788;42.670;23.330;2023-01-23T00:48:15;0.10;;;0.10;;
57985;SDS011;43788;42.670;23.330;2023-01-23T00:50:41;0.17;;;0.13;;
57985;SDS011;43788;42.670;23.330;2023-01-23T00:53:06;0.45;;;0.32;;
57985;SDS011;43788;42.670;23.330;2023-01-23T00:55:31;0.57;;;0.28;;
57985;SDS011;43788;42.670;23.330;2023-01-23T00:57:57;0.10;;;0.10;;
57985;SDS011;43788;42.670;23.330;2023-01-23T01:00:23;0.45;;;0.20;;
57985;SDS011;43788;42.670;23.330;2023-01-23T01:02:50;0.32;;;0.30;;
57985;SDS011;43788;42.670;23.330;2023-01-23T01:05:16;0.10;;;0.10;;
57985;SDS011;43788;42.670;23.330;2023-01-23T01:07:45;0.10;;;0.10;;
57985;SDS011;43788;42.670;23.330;2023-01-23T01:13:00;0.10;;;0.10;;
57985;SDS011;43788;42.670;23.330;2023-01-23T01:15:27;0.05;;;0.05;;
57985;SDS011;43788;42.670;23.330;2023-01-23T01:17:53;0.15;;;0.05;;
57985;SDS011;43788;42.670;23.330;2023-01-23T01:20:22;0.20;;;0.20;;
57985;SDS011;43788;42.670;23.330;2023-01-23T01:22:50;0.10;;;0.10;;
57985;SDS011;43788;42.670;23.330;2023-01-23T01:25:15;0.32;;;0.20;;
57985;SDS011;43788;42.670;23.330;2023-01-23T01:27:41;0.00;;;0.00;;
57985;SDS011;43788;42.670;23.330;2023-01-23T01:30:06;0.10;;;0.10;;
57985;SDS011;43788;42.670;23.330;2023-01-23T01:32:35;0.10;;;0.10;;
57985;SDS011;43788;42.670;23.330;2023-01-23T01:35:03;0.28;;;0.28;;
57985;SDS011;43788;42.670;23.330;2023-01-23T01:37:31;0.00;;;0.00;;
57985;SDS011;43788;42.670;23.330;2023-01-23T01:39:57;0.10;;;0.10;;
57985;SDS011;43788;42.670;23.330;2023-01-23T01:42:24;0.47;;;0.25;;
57985;SDS011;43788;42.670;23.330;2023-01-23T01:44:58;0.10;;;0.10;;
57985;SDS011;43788;42.670;23.330;2023-01-23T01:47:26;0.00;;;0.00;;
57985;SDS011;43788;42.670;23.330;2023-01-23T01:49:55;0.10;;;0.10;;
57985;SDS011;43788;42.670;23.330;2023-01-23T01:52:23;0.20;;;0.20;;
57985;SDS011;43788;42.670;23.330;2023-01-23T01:55:02;0.10;;;0.10;;
57985;SDS011;43788;42.670;23.330;2023-01-23T01:57:29;0.80;;;0.22;;
57985;SDS011;43788;42.670;23.330;2023-01-23T02:00:07;0.10;;;0.10;;
57985;SDS011;43788;42.670;23.330;2023-01-23T02:05:13;0.03;;;0.03;;
57985;SDS011;43788;42.670;23.330;2023-01-23T02:08:06;0.10;;;0.10;;
57985;SDS011;43788;42.670;23.330;2023-01-23T02:10:28;0.00;;;0.00;;
57985;SDS011;43788;42.670;23.330;2023-01-23T02:15:57;0.20;;;0.20;;
57985;SDS011;43788;42.670;23.330;2023-01-23T02:18:24;0.10;;;0.10;;
57985;SDS011;43788;42.670;23.330;2023-01-23T02:20:51;0.20;;;0.10;;
57985;SDS011;43788;42.670;23.330;2023-01-23T02:23:20;0.10;;;0.10;;
57985;SDS011;43788;42.670;23.330;2023-01-23T02:25:58;0.10;;;0.10;;
57985;SDS011;43788;42.670;23.330;2023-01-23T02:28:35;0.10;;;0.10;;
57985;SDS011;43788;42.670;23.330;2023-01-23T02:31:05;0.08;;;0.08;;
57985;SDS011;43788;42.670;23.330;2023-01-23T02:35:58;0.03;;;0.03;;
57985;SDS011;43788;42.670;23.330;2023-01-23T02:38:27;0.10;;;0.10;;
57985;SDS011;43788;42.670;23.330;2023-01-23T02:40:58;0.32;;;0.32;;
57985;SDS011;43788;42.670;23.330;2023-01-23T02:43:28;0.10;;;0.10;;
57985;SDS011;43788;42.670;23.330;2023-01-23T02:46:09;0.00;;;0.00;;
57985;SDS011;43788;42.670;23.330;2023-01-23T02:48:35;0.00;;;0.00;;
57985;SDS011;43788;42.670;23.330;2023-01-23T02:51:02;0.30;;;0.25;;
57985;SDS011;43788;42.670;23.330;2023-01-23T02:53:27;0.10;;;0.10;;
57985;SDS011;43788;42.670;23.330;2023-01-23T02:55:54;0.10;;;0.10;;
57985;SDS011;43788;42.670;23.330;2023-01-23T02:58:22;0.08;;;0.08;;
57985;SDS011;43788;42.670;23.330;2023-01-23T03:01:05;0.00;;;0.00;;
57985;SDS011;43788;42.670;23.330;2023-01-23T03:03:31;0.00;;;0.00;;
57985;SDS011;43788;42.670;23.330;2023-01-23T03:05:56;0.00;;;0.00;;
57985;SDS011;43788;42.670;23.330;2023-01-23T03:08:23;0.00;;;0.00;;
57985;SDS011;43788;42.670;23.330;2023-01-23T03:10:57;0.20;;;0.20;;
57985;SDS011;43788;42.670;23.330;2023-01-23T03:13:23;0.15;;;0.15;;
57985;SDS011;43788;42.670;23.330;2023-01-23T03:15:51;0.10;;;0.10;;
57985;SDS011;43788;42.670;23.330;2023-01-23T03:18:17;0.00;;;0.00;;
57985;SDS011;43788;42.670;23.330;2023-01-23T03:20:43;0.10;;;0.10;;
57985;SDS011;43788;42.670;23.330;2023-01-23T03:23:09;0.00;;;0.00;;
57985;SDS011;43788;42.670;23.330;2023-01-23T03:25:35;0.00;;;0.00;;
57985;SDS011;43788;42.670;23.330;2023-01-23T03:28:02;0.00;;;0.00;;
57985;SDS011;43788;42.670;23.330;2023-01-23T03:30:27;0.00;;;0.00;;
57985;SDS011;43788;42.670;23.330;2023-01-23T03:32:53;0.10;;;0.10;;
57985;SDS011;43788;42.670;23.330;2023-01-23T03:35:18;0.10;;;0.10;;
57985;SDS011;43788;42.670;23.330;2023-01-23T03:37:48;0.00;;;0.00;;
57985;SDS011;43788;42.670;23.330;2023-01-23T03:40:18;0.00;;;0.00;;
57985;SDS011;43788;42.670;23.330;2023-01-23T03:45:31;0.00;;;0.00;;
57985;SDS011;43788;42.670;23.330;2023-01-23T03:47:56;0.00;;;0.00;;
57985;SDS011;43788;42.670;23.330;2023-01-23T03:50:22;0.10;;;0.10;;
57985;SDS011;43788;42.670;23.330;2023-01-23T03:52:47;0.10;;;0.10;;
57985;SDS011;43788;42.670;23.330;2023-01-23T03:55:13;0.10;;;0.10;;
57985;SDS011;43788;42.670;23.330;2023-01-23T03:57:38;0.10;;;0.10;;
57985;SDS011;43788;42.670;23.330;2023-01-23T04:00:04;0.10;;;0.10;;
57985;SDS011;43788;42.670;23.330;2023-01-23T04:02:31;0.20;;;0.20;;
57985;SDS011;43788;42.670;23.330;2023-01-23T04:04:57;0.10;;;0.10;;
57985;SDS011;43788;42.670;23.330;2023-01-23T04:07:23;0.10;;;0.10;;
57985;SDS011;43788;42.670;23.330;2023-01-23T04:09:49;0.40;;;0.28;;
57985;SDS011;43788;42.670;23.330;2023-01-23T04:12:14;0.10;;;0.10;;
57985;SDS011;43788;42.670;23.330;2023-01-23T04:14:40;0.10;;;0.10;;
57985;SDS011;43788;42.670;23.330;2023-01-23T04:17:06;0.10;;;0.10;;
57985;SDS011;43788;42.670;23.330;2023-01-23T04:19:33;0.13;;;0.13;;
57985;SDS011;43788;42.670;23.330;2023-01-23T04:21:59;0.13;;;0.13;;
57985;SDS011;43788;42.670;23.330;2023-01-23T04:24:24;0.10;;;0.10;;
57985;SDS011;43788;42.670;23.330;2023-01-23T04:26:50;0.10;;;0.10;;
57985;SDS011;43788;42.670;23.330;2023-01-23T04:29:15;0.10;;;0.10;;
57985;SDS011;43788;42.670;23.330;2023-01-23T04:31:41;0.00;;;0.00;;
57985;SDS011;43788;42.670;23.330;2023-01-23T04:34:06;0.00;;;0.00;;
57985;SDS011;43788;42.670;23.330;2023-01-23T04:36:32;0.00;;;0.00;;
57985;SDS011;43788;42.670;23.330;2023-01-23T04:38:58;0.20;;;0.20;;
57985;SDS011;43788;42.670;23.330;2023-01-23T04:41:24;0.00;;;0.00;;
57985;SDS011;43788;42.670;23.330;2023-01-23T04:43:51;0.20;;;0.20;;
57985;SDS011;43788;42.670;23.330;2023-01-23T04:46:17;0.03;;;0.03;;
57985;SDS011;43788;42.670;23.330;2023-01-23T04:48:42;0.10;;;0.10;;
57985;SDS011;43788;42.670;23.330;2023-01-23T04:51:08;0.00;;;0.00;;
57985;SDS011;43788;42.670;23.330;2023-01-23T04:53:33;0.00;;;0.00;;
57985;SDS011;43788;42.670;23.330;2023-01-23T04:55:59;0.00;;;0.00;;
57985;SDS011;43788;42.670;23.330;2023-01-23T04:58:25;0.10;;;0.10;;
57985;SDS011;43788;42.670;23.330;2023-01-23T05:00:50;0.10;;;0.10;;
57985;SDS011;43788;42.670;23.330;2023-01-23T05:03:17;0.05;;;0.05;;
57985;SDS011;43788;42.670;23.330;2023-01-23T05:05:42;0.00;;;0.00;;
57985;SDS011;43788;42.670;23.330;2023-01-23T05:08:09;0.10;;;0.10;;
57985;SDS011;43788;42.670;23.330;2023-01-23T05:10:37;0.10;;;0.10;;
57985;SDS011;43788;42.670;23.330;2023-01-23T05:13:04;0.03;;;0.03;;
57985;SDS011;43788;42.670;23.330;2023-01-23T05:15:31;0.00;;;0.00;;
57985;SDS011;43788;42.670;23.330;2023-01-23T05:17:56;0.15;;;0.15;;
57985;SDS011;43788;42.670;23.330;2023-01-23T05:20:22;0.10;;;0.10;;
57985;SDS011;43788;42.670;23.330;2023-01-23T05:22:48;0.03;;;0.03;;
57985;SDS011;43788;42.670;23.330;2023-01-23T05:25:20;0.00;;;0.00;;
57985;SDS011;43788;42.670;23.330;2023-01-23T05:27:46;0.20;;;0.20;;
57985;SDS011;43788;42.670;23.330;2023-01-23T05:30:11;0.10;;;0.10;;
57985;SDS011;43788;42.670;23.330;2023-01-23T05:35:31;0.10;;;0.10;;
57985;SDS011;43788;42.670;23.330;2023-01-23T05:37:56;0.00;;;0.00;;
57985;SDS011;43788;42.670;23.330;2023-01-23T05:40:22;0.00;;;0.00;;
57985;SDS011;43788;42.670;23.330;2023-01-23T05:42:47;0.05;;;0.05;;
57985;SDS011;43788;42.670;23.330;2023-01-23T05:45:13;0.10;;;0.10;;
57985;SDS011;43788;42.670;23.330;2023-01-23T05:47:39;0.22;;;0.08;;
57985;SDS011;43788;42.670;23.330;2023-01-23T05:50:05;0.00;;;0.00;;
57985;SDS011;43788;42.670;23.330;2023-01-23T05:52:32;0.00;;;0.00;;
57985;SDS011;43788;42.670;23.330;2023-01-23T05:54:58;0.03;;;0.00;;
57985;SDS011;43788;42.670;23.330;2023-01-23T05:57:25;0.05;;;0.05;;
57985;SDS011;43788;42.670;23.330;2023-01-23T05:59:51;0.00;;;0.00;;
57985;SDS011;43788;42.670;23.330;2023-01-23T06:02:18;0.20;;;0.20;;
57985;SDS011;43788;42.670;23.330;2023-01-23T06:04:45;0.00;;;0.00;;
57985;SDS011;43788;42.670;23.330;2023-01-23T06:07:13;0.00;;;0.00;;
57985;SDS011;43788;42.670;23.330;2023-01-23T06:09:40;0.10;;;0.10;;
57985;SDS011;43788;42.670;23.330;2023-01-23T06:12:08;0.30;;;0.08;;
57985;SDS011;43788;42.670;23.330;2023-01-23T06:14:40;0.10;;;0.10;;
57985;SDS011;43788;42.670;23.330;2023-01-23T06:17:13;0.10;;;0.10;;
57985;SDS011;43788;42.670;23.330;2023-01-23T06:19:39;0.00;;;0.00;;
57985;SDS011;43788;42.670;23.330;2023-01-23T06:22:06;0.00;;;0.00;;
57985;SDS011;43788;42.670;23.330;2023-01-23T06:24:32;0.10;;;0.10;;
57985;SDS011;43788;42.670;23.330;2023-01-23T06:26:57;0.00;;;0.00;;
57985;SDS011;43788;42.670;23.330;2023-01-23T06:29:23;0.52;;;0.47;;
57985;SDS011;43788;42.670;23.330;2023-01-23T06:31:49;0.20;;;0.00;;
57985;SDS011;43788;42.670;23.330;2023-01-23T06:34:15;0.00;;;0.00;;
57985;SDS011;43788;42.670;23.330;2023-01-23T06:36:41;0.05;;;0.05;;
57985;SDS011;43788;42.670;23.330;2023-01-23T06:39:11;0.10;;;0.10;;
57985;SDS011;43788;42.670;23.330;2023-01-23T06:41:37;0.20;;;0.20;;
57985;SDS011;43788;42.670;23.330;2023-01-23T06:44:03;0.20;;;0.20;;
57985;SDS011;43788;42.670;23.330;2023-01-23T06:46:28;0.35;;;0.20;;
57985;SDS011;43788;42.670;23.330;2023-01-23T06:48:55;0.00;;;0.00;;
57985;SDS011;43788;42.670;23.330;2023-01-23T06:51:20;0.10;;;0.10;;
57985;SDS011;43788;42.670;23.330;2023-01-23T06:53:46;0.10;;;0.10;;
57985;SDS011;43788;42.670;23.330;2023-01-23T06:56:11;0.00;;;0.00;;
57985;SDS011;43788;42.670;23.330;2023-01-23T06:58:42;0.10;;;0.10;;
57985;SDS011;43788;42.670;23.330;2023-01-23T07:01:09;0.30;;;0.30;;
57985;SDS011;43788;42.670;23.330;2023-01-23T07:03:35;0.20;;;0.20;;
57985;SDS011;43788;42.670;23.330;2023-01-23T07:06:02;0.20;;;0.20;;
57985;SDS011;43788;42.670;23.330;2023-01-23T07:08:32;0.15;;;0.15;;
57985;SDS011;43788;42.670;23.330;2023-01-23T07:10:58;0.17;;;0.17;;
57985;SDS011;43788;42.670;23.330;2023-01-23T07:13:24;0.15;;;0.15;;
57985;SDS011;43788;42.670;23.330;2023-01-23T07:15:50;2.08;;;0.30;;
57985;SDS011;43788;42.670;23.330;2023-01-23T07:18:16;0.30;;;0.20;;
57985;SDS011;43788;42.670;23.330;2023-01-23T07:20:44;0.20;;;0.20;;
57985;SDS011;43788;42.670;23.330;2023-01-23T07:23:12;0.10;;;0.10;;
57985;SDS011;43788;42.670;23.330;2023-01-23T07:25:37;0.20;;;0.20;;
57985;SDS011;43788;42.670;23.330;2023-01-23T07:28:03;0.30;;;0.30;;
57985;SDS011;43788;42.670;23.330;2023-01-23T07:30:32;0.35;;;0.30;;
57985;SDS011;43788;42.670;23.330;2023-01-23T07:32:57;0.38;;;0.38;;
57985;SDS011;43788;42.670;23.330;2023-01-23T07:35:24;0.35;;;0.32;;
57985;SDS011;43788;42.670;23.330;2023-01-23T07:37:50;0.30;;;0.30;;
57985;SDS011;43788;42.670;23.330;2023-01-23T07:40:16;0.20;;;0.20;;
57985;SDS011;43788;42.670;23.330;2023-01-23T07:42:42;0.20;;;0.20;;
57985;SDS011;43788;42.670;23.330;2023-01-23T07:45:09;0.20;;;0.20;;
57985;SDS011;43788;42.670;23.330;2023-01-23T07:47:38;0.20;;;0.20;;
57985;SDS011;43788;42.670;23.330;2023-01-23T07:50:08;0.20;;;0.20;;
57985;SDS011;43788;42.670;23.330;2023-01-23T07:52:35;0.20;;;0.20;;
57985;SDS011;43788;42.670;23.330;2023-01-23T07:55:01;0.25;;;0.20;;
57985;SDS011;43788;42.670;23.330;2023-01-23T07:57:28;0.20;;;0.20;;
57985;SDS011;43788;42.670;23.330;2023-01-23T07:59:54;0.82;;;0.30;;
57985;SDS011;43788;42.670;23.330;2023-01-23T08:02:19;0.10;;;0.10;;
57985;SDS011;43788;42.670;23.330;2023-01-23T08:04:44;0.20;;;0.20;;
57985;SDS011;43788;42.670;23.330;2023-01-23T08:07:11;0.20;;;0.20;;
57985;SDS011;43788;42.670;23.330;2023-01-23T08:09:36;0.35;;;0.30;;
57985;SDS011;43788;42.670;23.330;2023-01-23T08:12:03;0.10;;;0.10;;
57985;SDS011;43788;42.670;23.330;2023-01-23T08:14:29;0.00;;;0.00;;
57985;SDS011;43788;42.670;23.330;2023-01-23T08:16:54;0.10;;;0.10;;
57985;SDS011;43788;42.670;23.330;2023-01-23T08:19:20;0.10;;;0.10;;
57985;SDS011;43788;42.670;23.330;2023-01-23T08:21:46;0.20;;;0.20;;
57985;SDS011;43788;42.670;23.330;2023-01-23T08:24:12;0.10;;;0.10;;
57985;SDS011;43788;42.670;23.330;2023-01-23T08:26:39;0.32;;;0.32;;
57985;SDS011;43788;42.670;23.330;2023-01-23T08:29:04;0.20;;;0.20;;
57985;SDS011;43788;42.670;23.330;2023-01-23T08:31:30;0.20;;;0.20;;
57985;SDS011;43788;42.670;23.330;2023-01-23T08:33:56;0.13;;;0.13;;
57985;SDS011;43788;42.670;23.330;2023-01-23T08:36:21;0.10;;;0.10;;
57985;SDS011;43788;42.670;23.330;2023-01-23T08:38:47;0.10;;;0.10;;
57985;SDS011;43788;42.670;23.330;2023-01-23T08:41:12;0.15;;;0.15;;
57985;SDS011;43788;42.670;23.330;2023-01-23T08:43:40;0.28;;;0.28;;
57985;SDS011;43788;42.670;23.330;2023-01-23T08:46:06;0.35;;;0.30;;
57985;SDS011;43788;42.670;23.330;2023-01-23T08:48:33;0.10;;;0.10;;
57985;SDS011;43788;42.670;23.330;2023-01-23T08:53:31;0.10;;;0.08;;
57985;SDS011;43788;42.670;23.330;2023-01-23T08:55:58;0.10;;;0.10;;
57985;SDS011;43788;42.670;23.330;2023-01-23T08:58:29;0.00;;;0.00;;
57985;SDS011;43788;42.670;23.330;2023-01-23T09:00:56;0.03;;;0.03;;
57985;SDS011;43788;42.670;23.330;2023-01-23T09:03:21;0.00;;;0.00;;
57985;SDS011;43788;42.670;23.330;2023-01-23T09:05:48;0.13;;;0.10;;
57985;SDS011;43788;42.670;23.330;2023-01-23T09:08:13;0.15;;;0.15;;
57985;SDS011;43788;42.670;23.330;2023-01-23T09:10:40;0.20;;;0.20;;
57985;SDS011;43788;42.670;23.330;2023-01-23T09:13:05;0.20;;;0.20;;
57985;SDS011;43788;42.670;23.330;2023-01-23T09:15:31;0.17;;;0.17;;
57985;SDS011;43788;42.670;23.330;2023-01-23T09:17:56;0.10;;;0.10;;
57985;SDS011;43788;42.670;23.330;2023-01-23T09:20:22;0.30;;;0.20;;
57985;SDS011;43788;42.670;23.330;2023-01-23T09:22:50;0.10;;;0.10;;
57985;SDS011;43788;42.670;23.330;2023-01-23T09:25:17;0.30;;;0.30;;
57985;SDS011;43788;42.670;23.330;2023-01-23T09:27:43;0.05;;;0.05;;
57985;SDS011;43788;42.670;23.330;2023-01-23T09:30:08;0.10;;;0.10;;
57985;SDS011;43788;42.670;23.330;2023-01-23T09:32:35;0.15;;;0.15;;
57985;SDS011;43788;42.670;23.330;2023-01-23T09:35:02;0.30;;;0.22;;
57985;SDS011;43788;42.670;23.330;2023-01-23T09:37:28;0.08;;;0.08;;
57985;SDS011;43788;42.670;23.330;2023-01-23T09:40:16;0.10;;;0.10;;
57985;SDS011;43788;42.670;23.330;2023-01-23T09:42:43;0.03;;;0.03;;
57985;SDS011;43788;42.670;23.330;2023-01-23T09:45:11;0.05;;;0.05;;
57985;SDS011;43788;42.670;23.330;2023-01-23T09:47:49;0.10;;;0.10;;
57985;SDS011;43788;42.670;23.330;2023-01-23T09:50:28;0.00;;;0.00;;
57985;SDS011;43788;42.670;23.330;2023-01-23T09:53:00;0.10;;;0.10;;
57985;SDS011;43788;42.670;23.330;2023-01-23T09:55:43;0.10;;;0.10;;
57985;SDS011;43788;42.670;23.330;2023-01-23T09:58:16;0.80;;;0.13;;
57985;SDS011;43788;42.670;23.330;2023-01-23T10:00:43;0.10;;;0.10;;
57985;SDS011;43788;42.670;23.330;2023-01-23T10:03:11;0.10;;;0.10;;
57985;SDS011;43788;42.670;23.330;2023-01-23T10:08:28;0.10;;;0.10;;
57985;SDS011;43788;42.670;23.330;2023-01-23T10:11:02;0.10;;;0.10;;
57985;SDS011;43788;42.670;23.330;2023-01-23T10:13:32;0.10;;;0.10;;
57985;SDS011;43788;42.670;23.330;2023-01-23T10:21:52;0.13;;;0.10;;
57985;SDS011;43788;42.670;23.330;2023-01-23T10:26:54;0.13;;;0.00;;
57985;SDS011;43788;42.670;23.330;2023-01-23T10:29:31;0.05;;;0.05;;
57985;SDS011;43788;42.670;23.330;2023-01-23T10:32:02;0.10;;;0.10;;
57985;SDS011;43788;42.670;23.330;2023-01-23T10:34:42;0.05;;;0.05;;
57985;SDS011;43788;42.670;23.330;2023-01-23T10:37:14;0.20;;;0.20;;
57985;SDS011;43788;42.670;23.330;2023-01-23T10:42:24;0.13;;;0.13;;
57985;SDS011;43788;42.670;23.330;2023-01-23T10:44:52;0.10;;;0.10;;
57985;SDS011;43788;42.670;23.330;2023-01-23T10:49:56;0.15;;;0.15;;
57985;SDS011;43788;42.670;23.330;2023-01-23T10:55:14;0.10;;;0.10;;
57985;SDS011;43788;42.670;23.330;2023-01-23T10:57:55;0.50;;;0.40;;
57985;SDS011;43788;42.670;23.330;2023-01-23T11:00:25;0.30;;;0.30;;
57985;SDS011;43788;42.670;23.330;2023-01-23T11:03:03;0.20;;;0.20;;
57985;SDS011;43788;42.670;23.330;2023-01-23T11:05:54;0.20;;;0.20;;
57985;SDS011;43788;42.670;23.330;2023-01-23T11:08:33;0.10;;;0.10;;
57985;SDS011;43788;42.670;23.330;2023-01-23T11:17:10;0.10;;;0.10;;
57985;SDS011;43788;42.670;23.330;2023-01-23T11:19:46;0.20;;;0.20;;
57985;SDS011;43788;42.670;23.330;2023-01-23T11:24:58;0.10;;;0.10;;
57985;SDS011;43788;42.670;23.330;2023-01-23T11:27:26;0.17;;;0.17;;
57985;SDS011;43788;42.670;23.330;2023-01-23T11:32:19;0.13;;;0.13;;
57985;SDS011;43788;42.670;23.330;2023-01-23T11:34:49;0.28;;;0.28;;
57985;SDS011;43788;42.670;23.330;2023-01-23T11:42:16;0.10;;;0.10;;
57985;SDS011;43788;42.670;23.330;2023-01-23T11:44:43;0.10;;;0.10;;
57985;SDS011;43788;42.670;23.330;2023-01-23T11:47:14;0.10;;;0.10;;
57985;SDS011;43788;42.670;23.330;2023-01-23T11:52:56;0.00;;;0.00;;
57985;SDS011;43788;42.670;23.330;2023-01-23T12:20:53;0.05;;;0.05;;
57985;SDS011;43788;42.670;23.330;2023-01-23T12:26:16;0.08;;;0.08;;
57985;SDS011;43788;42.670;23.330;2023-01-23T12:31:27;0.20;;;0.20;;
57985;SDS011;43788;42.670;23.330;2023-01-23T12:42:19;0.15;;;0.15;;
57985;SDS011;43788;42.670;23.330;2023-01-23T12:47:43;0.17;;;0.17;;
57985;SDS011;43788;42.670;23.330;2023-01-23T12:56:09;0.10;;;0.10;;
57985;SDS011;43788;42.670;23.330;2023-01-23T12:58:58;0.38;;;0.38;;
57985;SDS011;43788;42.670;23.330;2023-01-23T13:07:08;0.10;;;0.10;;
57985;SDS011;43788;42.670;23.330;2023-01-23T13:12:22;0.10;;;0.10;;
57985;SDS011;43788;42.670;23.330;2023-01-23T13:14:52;0.05;;;0.05;;
57985;SDS011;43788;42.670;23.330;2023-01-23T13:26:22;0.20;;;0.20;;
57985;SDS011;43788;42.670;23.330;2023-01-23T13:28:44;0.13;;;0.13;;
57985;SDS011;43788;42.670;23.330;2023-01-23T13:41:45;0.10;;;0.10;;
57985;SDS011;43788;42.670;23.330;2023-01-23T13:55:17;0.20;;;0.20;;
57985;SDS011;43788;42.670;23.330;2023-01-23T13:58:22;0.20;;;0.20;;
57985;SDS011;43788;42.670;23.330;2023-01-23T14:00:52;0.10;;;0.10;;
57985;SDS011;43788;42.670;23.330;2023-01-23T14:03:38;0.10;;;0.10;;
57985;SDS011;43788;42.670;23.330;2023-01-23T14:06:35;0.10;;;0.10;;
57985;SDS011;43788;42.670;23.330;2023-01-23T14:09:01;0.20;;;0.20;;
57985;SDS011;43788;42.670;23.330;2023-01-23T14:11:34;0.13;;;0.13;;
57985;SDS011;43788;42.670;23.330;2023-01-23T14:14:02;0.10;;;0.10;;
57985;SDS011;43788;42.670;23.330;2023-01-23T14:16:48;0.10;;;0.10;;
57985;SDS011;43788;42.670;23.330;2023-01-23T14:19:26;0.10;;;0.10;;
57985;SDS011;43788;42.670;23.330;2023-01-23T14:21:54;0.20;;;0.20;;
57985;SDS011;43788;42.670;23.330;2023-01-23T14:26:57;0.20;;;0.20;;
57985;SDS011;43788;42.670;23.330;2023-01-23T14:29:25;0.20;;;0.20;;
57985;SDS011;43788;42.670;23.330;2023-01-23T14:31:52;0.10;;;0.10;;
57985;SDS011;43788;42.670;23.330;2023-01-23T14:34:19;0.20;;;0.20;;
57985;SDS011;43788;42.670;23.330;2023-01-23T14:39:32;0.15;;;0.15;;
57985;SDS011;43788;42.670;23.330;2023-01-23T14:41:59;0.10;;;0.10;;
57985;SDS011;43788;42.670;23.330;2023-01-23T14:44:29;0.22;;;0.22;;
57985;SDS011;43788;42.670;23.330;2023-01-23T14:46:56;0.20;;;0.20;;
57985;SDS011;43788;42.670;23.330;2023-01-23T14:52:55;0.10;;;0.10;;
57985;SDS011;43788;42.670;23.330;2023-01-23T14:55:20;0.20;;;0.20;;
57985;SDS011;43788;42.670;23.330;2023-01-23T14:57:46;0.10;;;0.10;;
57985;SDS011;43788;42.670;23.330;2023-01-23T15:00:15;0.10;;;0.10;;
57985;SDS011;43788;42.670;23.330;2023-01-23T15:02:42;0.45;;;0.35;;
57985;SDS011;43788;42.670;23.330;2023-01-23T15:10:26;0.35;;;0.32;;
57985;SDS011;43788;42.670;23.330;2023-01-23T15:13:00;0.10;;;0.10;;
57985;SDS011;43788;42.670;23.330;2023-01-23T15:15:27;0.20;;;0.20;;
57985;SDS011;43788;42.670;23.330;2023-01-23T15:17:54;0.10;;;0.10;;
57985;SDS011;43788;42.670;23.330;2023-01-23T15:20:36;0.30;;;0.30;;
57985;SDS011;43788;42.670;23.330;2023-01-23T15:25:42;0.10;;;0.10;;
57985;SDS011;43788;42.670;23.330;2023-01-23T15:28:27;0.47;;;0.32;;
57985;SDS011;43788;42.670;23.330;2023-01-23T15:30:54;0.10;;;0.10;;
57985;SDS011;43788;42.670;23.330;2023-01-23T15:33:27;0.20;;;0.20;;
57985;SDS011;43788;42.670;23.330;2023-01-23T15:36:03;0.20;;;0.20;;
57985;SDS011;43788;42.670;23.330;2023-01-23T15:38:31;0.25;;;0.10;;
57985;SDS011;43788;42.670;23.330;2023-01-23T15:40:56;0.10;;;0.10;;
57985;SDS011;43788;42.670;23.330;2023-01-23T15:43:23;0.10;;;0.10;;
57985;SDS011;43788;42.670;23.330;2023-01-23T15:45:48;0.10;;;0.10;;
57985;SDS011;43788;42.670;23.330;2023-01-23T15:48:14;0.22;;;0.22;;
57985;SDS011;43788;42.670;23.330;2023-01-23T15:50:39;0.20;;;0.20;;
57985;SDS011;43788;42.670;23.330;2023-01-23T15:53:09;0.05;;;0.05;;
57985;SDS011;43788;42.670;23.330;2023-01-23T15:55:36;0.00;;;0.00;;
57985;SDS011;43788;42.670;23.330;2023-01-23T15:58:01;0.25;;;0.25;;
57985;SDS011;43788;42.670;23.330;2023-01-23T16:00:27;0.20;;;0.20;;
57985;SDS011;43788;42.670;23.330;2023-01-23T16:02:55;0.20;;;0.20;;
57985;SDS011;43788;42.670;23.330;2023-01-23T16:05:22;0.30;;;0.30;;
57985;SDS011;43788;42.670;23.330;2023-01-23T16:07:49;0.65;;;0.30;;
57985;SDS011;43788;42.670;23.330;2023-01-23T16:10:18;0.20;;;0.20;;
57985;SDS011;43788;42.670;23.330;2023-01-23T16:12:45;0.10;;;0.10;;
57985;SDS011;43788;42.670;23.330;2023-01-23T16:15:18;0.50;;;0.50;;
57985;SDS011;43788;42.670;23.330;2023-01-23T16:17:45;0.10;;;0.10;;
57985;SDS011;43788;42.670;23.330;2023-01-23T16:20:13;0.10;;;0.10;;
57985;SDS011;43788;42.670;23.330;2023-01-23T16:22:39;0.10;;;0.10;;
57985;SDS011;43788;42.670;23.330;2023-01-23T16:25:28;0.10;;;0.10;;
57985;SDS011;43788;42.670;23.330;2023-01-23T16:27:53;0.20;;;0.20;;
57985;SDS011;43788;42.670;23.330;2023-01-23T16:30:24;0.20;;;0.20;;
57985;SDS011;43788;42.670;23.330;2023-01-23T16:32:54;0.20;;;0.20;;
57985;SDS011;43788;42.670;23.330;2023-01-23T16:35:24;0.10;;;0.10;;
57985;SDS011;43788;42.670;23.330;2023-01-23T16:37:51;0.10;;;0.10;;
57985;SDS011;43788;42.670;23.330;2023-01-23T16:40:25;0.10;;;0.10;;
57985;SDS011;43788;42.670;23.330;2023-01-23T16:42:52;0.20;;;0.20;;
57985;SDS011;43788;42.670;23.330;2023-01-23T16:45:24;0.20;;;0.20;;
57985;SDS011;43788;42.670;23.330;2023-01-23T16:47:54;0.30;;;0.30;;
57985;SDS011;43788;42.670;23.330;2023-01-23T16:50:41;0.10;;;0.10;;
57985;SDS011;43788;42.670;23.330;2023-01-23T16:55:45;0.10;;;0.10;;
57985;SDS011;43788;42.670;23.330;2023-01-23T16:58:18;0.10;;;0.10;;
57985;SDS011;43788;42.670;23.330;2023-01-23T17:00:47;0.43;;;0.30;;
57985;SDS011;43788;42.670;23.330;2023-01-23T17:03:21;0.20;;;0.20;;
57985;SDS011;43788;42.670;23.330;2023-01-23T17:05:49;0.50;;;0.50;;
57985;SDS011;43788;42.670;23.330;2023-01-23T17:11:09;2.78;;;2.58;;
57985;SDS011;43788;42.670;23.330;2023-01-23T17:13:41;1.83;;;1.73;;
57985;SDS011;43788;42.670;23.330;2023-01-23T17:16:07;1.00;;;1.00;;
57985;SDS011;43788;42.670;23.330;2023-01-23T17:18:33;1.30;;;1.25;;
57985;SDS011;43788;42.670;23.330;2023-01-23T17:21:01;1.25;;;1.25;;
57985;SDS011;43788;42.670;23.330;2023-01-23T17:23:27;1.40;;;1.30;;
57985;SDS011;43788;42.670;23.330;2023-01-23T17:25:54;0.77;;;0.73;;
57985;SDS011;43788;42.670;23.330;2023-01-23T17:28:20;0.55;;;0.55;;